KIBM

Kimball Municipal / Robert E Arraj Field Airport

Kimball, Nebraska, USA
METAR KIBM 191515Z AUTO 32017G20KT 7SM BKN020 BKN030 OVC085 16/11 A3016 RMK AO2 T01620111
Observed Flight Rules
Aug-19 @ 15:15 UTC (23 minutes ago) Marginal Visual Flight Rules
Wind Visibility Clouds
320° at 17 knots
 Gusting to 20 knots
7 miles
  • Broken at 2,000' AGL
  • Broken at 3,000' AGL
  • Overcast at 8,500' AGL
Temperatures Readings
Current 16°C / 61°F
Dewpoint 11°C / 52°F
Humidity 72%
Altimeter 30.16" Hg
Pressure 1021 hPa
Elevation 1501
METAR KIBM 191515Z AUTO 32017G20KT 7SM BKN020 BKN030 OVC085 16/11 A3016 RMK AO2 T01620111
Observed Flight Rules
Aug-19 @ 15:15 UTC
(23 minutes ago)
MVFR
Wind Visibility
320° at 17 knots
 Gusting to 20 knots
7 miles
Clouds
  • Broken at 2,000' AGL
  • Broken at 3,000' AGL
  • Overcast at 8,500' AGL
Temperature Dewpoint
16°C / 61°F 11°C / 52°F
Humidity Altimeter Pressure
72% 30.16" Hg 1021 hPa